Close Search

Base
°C
Summit
°C

WEATHER AT A GLANCE

Image Slideshow

RMR Village

Revelstoke Mountain Resort -  RMR Village Webcam

Top of The Stoke

Revelstoke Mountain Resort -  Top of The Stoke Webcam

Top of Stellar

Revelstoke Mountain Resort -  Top of Stellar Webcam

Mackenzie Outpost

Revelstoke Mountain Resort -  Mackenzie Outpost Webcam

Ripper

Revelstoke Mountain Resort -  Ripper Webcam
Base
°C
Summit
°C
Wind (Summit)
km/h

Today's Forecast

Subpeak Weather

Time Avg. Air Temp Dew Point Avg. Rel Humidity Avg. 2 Min Wind Speed Max Gust Velocity MGV Time MGV Direction Avg. Spot Wind Velocity
2026-05-02 14:25:005° C-4° C50%1 km/h14 km/h14:21:00SE3 km/h
13:25:005° C-5° C51%0 km/h3 km/h13:21:00NW0 km/h
12:25:005° C-5° C52%7 km/h13 km/h12:24:00NW5 km/h
11:25:004° C-4° C55%11 km/h18 km/h11:24:00NW12 km/h
10:25:004° C-4° C60%10 km/h14 km/h10:23:00NW11 km/h
09:25:004° C-3° C59%8 km/h13 km/h09:23:007 km/h
08:25:003° C-3° C63%10 km/h14 km/h08:24:00N8 km/h
07:25:003° C-4° C59%19 km/h20 km/h07:25:00NW19 km/h
06:25:003° C-3° C65%12 km/h13 km/h06:24:00W12 km/h
05:25:003° C-4° C59%14 km/h15 km/h05:25:00NW13 km/h
04:25:004° C-4° C59%11 km/h12 km/h04:21:00NW11 km/h
03:25:004° C-3° C64%8 km/h9 km/h03:25:00SW8 km/h
02:25:004° C-3° C63%8 km/h9 km/h02:21:00SW8 km/h
01:25:004° C-2° C64%10 km/h10 km/h01:24:00SW10 km/h
00:25:004° C-2° C62%7 km/h7 km/h00:22:00S7 km/h
23:25:004° C-3° C58%8 km/h8 km/h23:24:00SW7 km/h
22:25:004° C-2° C64%13 km/h14 km/h22:25:00NE12 km/h
21:25:004° C-3° C62%7 km/h7 km/h21:25:00NE6 km/h
20:25:004° C-3° C61%3 km/h4 km/h20:21:00W3 km/h
19:25:004° C-3° C61%10 km/h11 km/h19:25:00W10 km/h
18:25:004° C-3° C61%11 km/h13 km/h18:25:00SW10 km/h
17:25:004° C-3° C60%13 km/h16 km/h17:22:00SW13 km/h
16:25:004° C-3° C59%8 km/h10 km/h16:25:00SW7 km/h
15:25:004° C-3° C60%9 km/h13 km/h15:22:00SW10 km/h

Time Avg. Air Temp Dew Point Avg. Rel Humidity Avg. 2 Min Wind Speed Max Gust Velocity MGV Time MGV Direction Avg. Spot Wind Velocity
2026-05-02 14:25:005° C-4° C50%1 km/h14 km/h14:21:00SE3 km/h
14:20:005° C-4° C51%16 km/h20 km/h14:19:00W11 km/h
14:15:005° C-5° C50%6 km/h18 km/h14:11:00NE9 km/h
14:10:005° C-4° C50%7 km/h22 km/h14:07:00NW9 km/h
14:05:005° C-4° C52%3 km/h7 km/h14:05:00W2 km/h
14:00:005° C-4° C51%15 km/h20 km/h13:59:00NE9 km/h
13:55:005° C-4° C51%7 km/h19 km/h13:51:00W9 km/h
13:50:005° C-4° C50%14 km/h18 km/h13:50:00NW6 km/h
13:45:005° C-5° C49%1 km/h7 km/h13:43:00NW2 km/h
13:40:005° C-4° C51%10 km/h14 km/h13:39:00W4 km/h
13:35:005° C-5° C50%4 km/h9 km/h13:33:00W5 km/h
13:30:005° C-5° C48%9 km/h15 km/h13:28:00NW7 km/h
13:25:005° C-5° C51%0 km/h3 km/h13:21:00NW0 km/h

We value your privacy
We use cookies to enhance your browsing experience, serve personalized ads or content, and analyze our traffic. By clicking "Allow Cookies", you consent to our use of cookies. For additional details view our Privacy Policy.
Cookie preferences

You can control how your data is used on our website. Learn more below about the cookies we use by reviewing our Privacy Policy.

Your cookie preferences have been saved.